Time;durP1;ratioP1;P1;durP2;ratioP2;P2;SDS_P1;SDS_P2;PMS_P1;PMS_P2;Temp;Humidity;BMP_temperature;BMP_pressure;BME280_temperature;BME280_humidity;BME280_pressure;Samples;Min_cycle;Max_cycle;Signal;HPM_P1;HPM_P2
2021/10/10 00:02:17;;;;;;;12.70;8.40;;;6.70;99.90;;;;;;6268222;22;20401;-86
2021/10/10 00:04:42;;;;;;;10.60;9.13;;;6.70;99.90;;;;;;6242454;22;20463;-86
2021/10/10 00:07:08;;;;;;;11.13;9.00;;;6.70;99.90;;;;;;6244173;22;20487;-86
2021/10/10 00:09:34;;;;;;;9.47;8.47;;;6.60;99.90;;;;;;6241757;22;20160;-86
2021/10/10 00:11:59;;;;;;;10.90;9.57;;;6.60;99.90;;;;;;6244432;22;20159;-86
2021/10/10 00:14:25;;;;;;;12.03;9.97;;;6.50;99.90;;;;;;6241993;22;20271;-86
2021/10/10 00:16:50;;;;;;;10.47;9.37;;;6.60;99.90;;;;;;6243140;22;20164;-86
2021/10/10 00:19:16;;;;;;;12.67;9.00;;;6.50;99.90;;;;;;6243838;22;20245;-86
2021/10/10 00:21:42;;;;;;;11.67;9.17;;;6.50;99.90;;;;;;6243015;22;20185;-85
2021/10/10 00:24:08;;;;;;;10.67;9.40;;;6.40;99.90;;;;;;6242953;22;20245;-86
2021/10/10 00:26:33;;;;;;;13.10;9.50;;;6.30;99.90;;;;;;6243819;22;20150;-86
2021/10/10 00:28:59;;;;;;;9.97;8.67;;;6.20;99.90;;;;;;6242949;22;20162;-86
2021/10/10 00:31:25;;;;;;;13.07;9.77;;;6.20;99.90;;;;;;6243161;22;20447;-86
2021/10/10 00:33:51;;;;;;;10.07;8.37;;;6.30;99.90;;;;;;6243063;22;20190;-86
2021/10/10 00:36:16;;;;;;;11.10;8.70;;;6.20;99.90;;;;;;6243968;22;20404;-86
2021/10/10 00:38:43;;;;;;;10.83;9.70;;;6.20;99.90;;;;;;6242556;22;20640;-86
2021/10/10 00:41:08;;;;;;;12.57;10.10;;;6.20;99.90;;;;;;6260345;22;20172;-86
2021/10/10 00:43:34;;;;;;;10.20;8.60;;;6.10;99.90;;;;;;6244367;22;20443;-85
2021/10/10 00:46:00;;;;;;;11.40;9.33;;;6.10;99.90;;;;;;6243528;22;20211;-86
2021/10/10 00:48:25;;;;;;;9.70;8.70;;;6.10;99.90;;;;;;6242695;22;20401;-86
2021/10/10 00:50:52;;;;;;;10.13;8.47;;;6.10;99.90;;;;;;6243895;22;20166;-86
2021/10/10 00:53:19;;;;;;;9.77;8.50;;;6.10;99.90;;;;;;6242544;22;20208;-86
2021/10/10 00:55:53;;;;;;;12.30;9.67;;;6.10;99.90;;;;;;6243144;22;20404;-86
2021/10/10 00:58:27;;;;;;;10.10;8.97;;;6.00;99.90;;;;;;6242494;22;20503;-86
2021/10/10 01:00:54;;;;;;;12.50;9.03;;;5.90;99.90;;;;;;6243386;22;20397;-86
2021/10/10 01:03:20;;;;;;;14.70;9.13;;;6.00;99.90;;;;;;6243360;22;20419;-85
2021/10/10 01:05:47;;;;;;;10.77;9.20;;;6.00;99.90;;;;;;6243023;22;20400;-85
2021/10/10 01:08:17;;;;;;;11.30;9.00;;;6.00;99.90;;;;;;6242290;22;20400;-86
2021/10/10 01:10:45;;;;;;;10.37;8.60;;;6.00;99.90;;;;;;6217621;22;20409;-86
2021/10/10 01:13:12;;;;;;;12.33;9.73;;;5.90;99.90;;;;;;6242794;22;20425;-86
2021/10/10 01:15:38;;;;;;;8.80;8.00;;;5.80;99.90;;;;;;6242395;22;20903;-86
2021/10/10 01:18:03;;;;;;;15.77;13.33;;;5.80;99.90;;;;;;6243028;22;20639;-86
2021/10/10 01:20:44;;;;;;;19.70;15.20;;;5.80;99.90;;;;;;6242081;22;20181;-85
2021/10/10 01:23:10;;;;;;;22.03;17.00;;;5.70;99.90;;;;;;6243186;22;20197;-86
2021/10/10 01:25:35;;;;;;;14.00;11.20;;;5.70;99.90;;;;;;6266824;22;20392;-86
2021/10/10 01:28:01;;;;;;;11.43;9.27;;;5.70;99.90;;;;;;6243259;22;20170;-86
2021/10/10 01:30:27;;;;;;;15.40;10.47;;;5.70;99.90;;;;;;6242367;22;20612;-86
2021/10/10 01:32:54;;;;;;;10.70;8.87;;;5.80;99.90;;;;;;6242988;22;20404;-86
2021/10/10 01:35:20;;;;;;;11.03;8.67;;;5.70;99.90;;;;;;6241562;22;20181;-86
2021/10/10 01:37:46;;;;;;;10.97;8.90;;;5.70;99.90;;;;;;6242268;22;20389;-86
2021/10/10 01:40:12;;;;;;;11.77;10.10;;;5.60;99.90;;;;;;6217127;22;20413;-86
2021/10/10 01:42:38;;;;;;;11.30;9.30;;;5.60;99.90;;;;;;6242785;22;20216;-86
2021/10/10 01:45:13;;;;;;;15.80;9.77;;;5.60;99.90;;;;;;6242319;22;20397;-86
2021/10/10 01:47:38;;;;;;;10.70;8.87;;;5.50;99.90;;;;;;6242777;22;20170;-86
2021/10/10 01:50:04;;;;;;;13.03;9.27;;;5.50;99.90;;;;;;6242809;22;20939;-86
2021/10/10 01:52:30;;;;;;;9.73;8.40;;;5.40;99.90;;;;;;6242024;22;20170;-86
2021/10/10 01:54:56;;;;;;;10.80;8.70;;;5.40;99.90;;;;;;6241876;22;20446;-86
2021/10/10 01:57:22;;;;;;;11.47;9.83;;;5.40;99.90;;;;;;6242055;22;20155;-86
2021/10/10 01:59:47;;;;;;;9.80;8.30;;;5.50;99.90;;;;;;6242857;22;20172;-86
2021/10/10 02:02:13;;;;;;;10.00;8.33;;;5.40;99.90;;;;;;6242840;22;20487;-86
2021/10/10 02:04:38;;;;;;;11.77;9.40;;;5.50;99.90;;;;;;6241918;22;20189;-86
2021/10/10 02:07:04;;;;;;;11.37;9.23;;;5.50;99.90;;;;;;6243361;22;20185;-86
2021/10/10 02:09:30;;;;;;;12.00;9.33;;;5.40;99.90;;;;;;6247332;22;20169;-88
2021/10/10 02:11:56;;;;;;;12.30;8.93;;;5.20;99.90;;;;;;6255116;22;20188;-86
2021/10/10 02:14:21;;;;;;;11.17;8.70;;;5.10;99.90;;;;;;6242678;22;20652;-86
2021/10/10 02:16:47;;;;;;;10.03;8.87;;;5.10;99.90;;;;;;6243296;22;20158;-86
2021/10/10 02:19:13;;;;;;;10.67;8.77;;;5.10;99.90;;;;;;6242534;22;20167;-86
2021/10/10 02:21:38;;;;;;;11.60;8.80;;;5.10;99.90;;;;;;6242999;22;20754;-86
2021/10/10 02:24:13;;;;;;;12.67;10.03;;;5.10;99.90;;;;;;6269573;22;20165;-86
2021/10/10 02:26:39;;;;;;;11.40;8.67;;;5.10;99.90;;;;;;6242682;22;20407;-86
2021/10/10 02:29:06;;;;;;;11.00;8.60;;;5.10;99.90;;;;;;6243256;22;20470;-86
2021/10/10 02:31:31;;;;;;;9.60;7.67;;;5.00;99.90;;;;;;6243587;22;20393;-86
2021/10/10 02:33:57;;;;;;;9.60;8.23;;;5.00;99.90;;;;;;6242231;22;20921;-86
2021/10/10 02:36:23;;;;;;;11.07;8.67;;;4.90;99.90;;;;;;6242844;22;20166;-86
2021/10/10 02:38:48;;;;;;;10.30;8.23;;;4.90;99.90;;;;;;6242983;22;20495;-86
2021/10/10 02:41:16;;;;;;;14.93;10.03;;;4.90;99.90;;;;;;6242424;22;20245;-86
2021/10/10 02:43:41;;;;;;;12.30;10.10;;;4.80;99.90;;;;;;6242869;22;20170;-86
2021/10/10 02:46:07;;;;;;;13.00;10.03;;;4.70;99.90;;;;;;6242709;22;20452;-85
2021/10/10 02:48:33;;;;;;;16.67;10.97;;;4.70;99.90;;;;;;6243036;22;20188;-86
2021/10/10 02:50:58;;;;;;;12.33;9.87;;;4.80;99.90;;;;;;6242360;22;20168;-86
2021/10/10 02:53:24;;;;;;;11.67;9.80;;;4.80;99.90;;;;;;6242516;22;20184;-85
2021/10/10 02:55:50;;;;;;;15.80;10.13;;;4.80;99.90;;;;;;6242413;22;20167;-86
2021/10/10 02:58:15;;;;;;;13.57;10.70;;;4.80;99.90;;;;;;6243321;22;20173;-85
2021/10/10 03:00:41;;;;;;;13.10;9.97;;;4.80;99.90;;;;;;6244990;22;20579;-85
2021/10/10 03:03:06;;;;;;;14.50;10.13;;;4.80;99.90;;;;;;6244266;22;20172;-85
2021/10/10 03:05:32;;;;;;;13.70;9.90;;;4.90;99.90;;;;;;6244318;22;20154;-85
2021/10/10 03:07:58;;;;;;;11.50;9.47;;;4.90;99.90;;;;;;6245170;22;20157;-85
2021/10/10 03:10:23;;;;;;;12.27;10.10;;;4.90;99.90;;;;;;6244713;22;20169;-85
2021/10/10 03:12:52;;;;;;;12.43;9.20;;;4.80;99.90;;;;;;6245001;22;20166;-85
2021/10/10 03:15:17;;;;;;;13.63;10.00;;;4.90;99.90;;;;;;6244159;22;20225;-85
2021/10/10 03:17:43;;;;;;;10.57;9.47;;;4.90;99.90;;;;;;6244740;22;20854;-85
2021/10/10 03:20:10;;;;;;;11.30;9.70;;;5.00;99.90;;;;;;6244421;22;20163;-86
2021/10/10 03:22:35;;;;;;;12.13;9.60;;;5.00;99.90;;;;;;6243927;22;20159;-85
2021/10/10 03:25:04;;;;;;;13.33;10.00;;;5.00;99.90;;;;;;6243849;22;20902;-85
2021/10/10 03:27:32;;;;;;;12.77;9.57;;;4.90;99.90;;;;;;6245065;22;20158;-85
2021/10/10 03:30:00;;;;;;;12.13;9.63;;;4.80;99.90;;;;;;6243306;22;20405;-85
2021/10/10 03:32:26;;;;;;;11.23;9.77;;;4.90;99.90;;;;;;6244930;22;20458;-86
2021/10/10 03:34:51;;;;;;;12.40;9.77;;;4.90;99.90;;;;;;6244714;22;20448;-85
2021/10/10 03:37:17;;;;;;;12.10;10.03;;;4.80;99.90;;;;;;6245006;22;20166;-85
2021/10/10 03:39:43;;;;;;;13.40;10.90;;;4.70;99.90;;;;;;6247743;22;20163;-86
2021/10/10 03:42:09;;;;;;;14.90;10.60;;;4.70;99.90;;;;;;6255777;22;20173;-86
2021/10/10 03:44:34;;;;;;;15.23;10.80;;;4.50;99.90;;;;;;6244313;22;20390;-85
2021/10/10 03:47:00;;;;;;;13.47;10.43;;;4.60;99.90;;;;;;6244330;22;20484;-85
2021/10/10 03:49:26;;;;;;;11.47;10.00;;;4.50;99.90;;;;;;6244214;22;20241;-86
2021/10/10 03:51:52;;;;;;;10.17;9.17;;;4.60;99.90;;;;;;6244819;22;20552;-85
2021/10/10 03:56:50;;;;;;;13.07;9.43;;;4.60;99.90;;;;;;6271999;22;20529;-86
2021/10/10 03:59:16;;;;;;;12.23;9.33;;;4.60;99.90;;;;;;6243840;22;20758;-85
2021/10/10 04:01:42;;;;;;;10.57;9.47;;;4.60;99.90;;;;;;6243123;22;20393;-86
2021/10/10 04:04:08;;;;;;;10.90;9.00;;;4.60;99.90;;;;;;6243824;22;20213;-86
2021/10/10 04:06:34;;;;;;;13.93;9.33;;;4.50;99.90;;;;;;6243984;22;20400;-86
2021/10/10 04:09:00;;;;;;;12.67;9.97;;;4.50;99.90;;;;;;6243686;22;20445;-86
2021/10/10 04:11:26;;;;;;;12.80;9.70;;;4.50;99.90;;;;;;6243988;22;20526;-85
2021/10/10 04:13:51;;;;;;;15.03;13.17;;;4.40;99.90;;;;;;6244325;22;20933;-85
2021/10/10 04:16:17;;;;;;;17.90;13.03;;;4.30;99.90;;;;;;6243417;22;20162;-86
2021/10/10 04:18:43;;;;;;;12.07;10.33;;;4.30;99.90;;;;;;6243957;22;20186;-86
2021/10/10 04:21:09;;;;;;;12.27;10.30;;;4.30;99.90;;;;;;6244200;22;20164;-86
2021/10/10 04:23:34;;;;;;;15.93;9.80;;;4.20;99.90;;;;;;6244297;22;20683;-86
2021/10/10 04:26:01;;;;;;;14.10;11.30;;;4.30;99.90;;;;;;6243180;22;20877;-86
2021/10/10 04:28:26;;;;;;;13.03;11.37;;;4.30;99.90;;;;;;6243646;22;20171;-86
2021/10/10 04:30:52;;;;;;;15.30;10.97;;;4.30;99.90;;;;;;6244010;22;20473;-86
2021/10/10 04:33:18;;;;;;;12.40;10.70;;;4.40;99.90;;;;;;6243050;22;20675;-86
2021/10/10 04:35:44;;;;;;;14.93;11.27;;;4.20;99.90;;;;;;6243591;22;20408;-86
2021/10/10 04:38:10;;;;;;;15.23;10.90;;;4.20;99.90;;;;;;6244031;22;20169;-85
2021/10/10 04:40:36;;;;;;;13.73;10.63;;;4.20;99.90;;;;;;6243784;22;20431;-86
2021/10/10 04:43:07;;;;;;;14.33;10.60;;;4.10;99.90;;;;;;6243544;22;20390;-86
2021/10/10 04:45:33;;;;;;;19.50;11.23;;;4.10;99.90;;;;;;6244156;22;20772;-85
2021/10/10 04:47:59;;;;;;;15.20;11.27;;;4.10;99.90;;;;;;6243703;22;20389;-86
2021/10/10 04:50:25;;;;;;;13.07;10.03;;;4.10;99.90;;;;;;6243695;22;20441;-85
2021/10/10 04:52:50;;;;;;;12.40;9.77;;;4.00;99.90;;;;;;6243558;22;20424;-86
2021/10/10 04:55:16;;;;;;;12.87;9.13;;;4.00;99.90;;;;;;6243174;22;20511;-85
2021/10/10 04:57:42;;;;;;;10.77;8.83;;;4.00;99.90;;;;;;6244285;22;20168;-86
2021/10/10 05:00:08;;;;;;;10.60;8.97;;;4.10;99.90;;;;;;6243562;22;20196;-86
2021/10/10 05:02:34;;;;;;;12.77;9.80;;;4.10;99.90;;;;;;6244058;22;20165;-86
2021/10/10 05:05:00;;;;;;;14.93;9.10;;;4.00;99.90;;;;;;6243508;22;20413;-86
2021/10/10 05:07:27;;;;;;;12.30;9.57;;;4.10;99.90;;;;;;6243683;22;20653;-86
2021/10/10 05:09:52;;;;;;;12.63;9.60;;;4.20;99.90;;;;;;6250558;22;20187;-86
2021/10/10 05:12:20;;;;;;;13.03;10.03;;;4.30;99.90;;;;;;6282905;22;20412;-86
2021/10/10 05:14:45;;;;;;;11.63;9.23;;;4.20;99.90;;;;;;6243216;22;20442;-85
2021/10/10 05:17:14;;;;;;;12.90;10.77;;;4.20;99.90;;;;;;6243789;22;20734;-86
2021/10/10 05:19:42;;;;;;;12.17;9.20;;;4.20;99.90;;;;;;6242886;22;20159;-85
2021/10/10 05:22:08;;;;;;;10.57;9.57;;;4.20;99.90;;;;;;6242820;22;20948;-86
2021/10/10 05:24:33;;;;;;;11.53;9.80;;;4.10;99.90;;;;;;6242159;22;20403;-85
2021/10/10 05:27:00;;;;;;;12.87;10.70;;;4.10;99.90;;;;;;6243332;22;20194;-85
2021/10/10 05:29:26;;;;;;;14.27;10.63;;;4.10;99.90;;;;;;6243537;22;20165;-85
2021/10/10 05:31:52;;;;;;;17.20;12.37;;;4.00;99.90;;;;;;6243565;22;20489;-85
2021/10/10 05:34:18;;;;;;;19.30;11.60;;;3.90;99.90;;;;;;6242368;22;20443;-85
2021/10/10 05:36:43;;;;;;;14.57;11.97;;;3.80;99.90;;;;;;6243808;22;20163;-85
2021/10/10 05:39:11;;;;;;;13.47;10.23;;;3.90;99.90;;;;;;6243505;22;20171;-85
2021/10/10 05:41:57;;;;;;;14.53;10.97;;;3.90;99.90;;;;;;6242310;22;20179;-86
2021/10/10 05:44:23;;;;;;;14.53;11.90;;;3.90;99.90;;;;;;6243696;22;20387;-86
2021/10/10 05:46:49;;;;;;;13.20;11.37;;;3.80;99.90;;;;;;6242194;22;20439;-86
2021/10/10 05:49:15;;;;;;;13.93;10.47;;;4.00;99.90;;;;;;6243101;22;20672;-86
2021/10/10 05:51:45;;;;;;;11.90;9.87;;;4.00;99.90;;;;;;6242947;22;20227;-86
2021/10/10 05:54:12;;;;;;;10.33;8.90;;;4.00;99.90;;;;;;6243373;22;20436;-85
2021/10/10 05:56:39;;;;;;;11.90;9.20;;;3.90;99.90;;;;;;6242617;22;20406;-85
2021/10/10 05:59:07;;;;;;;16.00;12.17;;;3.80;99.90;;;;;;6243406;22;20716;-85
2021/10/10 06:01:33;;;;;;;12.67;10.00;;;3.90;99.90;;;;;;6243117;22;20417;-85
2021/10/10 06:03:59;;;;;;;12.23;9.90;;;3.90;99.90;;;;;;6242970;22;20421;-86
2021/10/10 06:06:25;;;;;;;15.33;11.60;;;3.80;99.90;;;;;;6239389;22;20250;-86
2021/10/10 06:08:51;;;;;;;13.10;11.70;;;3.60;99.90;;;;;;6242785;22;20397;-85
2021/10/10 06:11:17;;;;;;;17.03;13.07;;;3.60;99.90;;;;;;6242678;22;20198;-85
2021/10/10 06:13:42;;;;;;;21.50;15.80;;;3.50;99.90;;;;;;6243180;22;20624;-85
2021/10/10 06:16:09;;;;;;;16.67;12.73;;;3.50;99.90;;;;;;6241750;22;20464;-86
2021/10/10 06:18:37;;;;;;;16.77;12.47;;;3.50;99.90;;;;;;6242187;22;20599;-86
2021/10/10 06:21:03;;;;;;;23.87;17.07;;;3.60;99.90;;;;;;6242822;22;20394;-86
2021/10/10 06:23:28;;;;;;;16.67;12.57;;;3.70;99.90;;;;;;6243229;22;20400;-86
2021/10/10 06:25:57;;;;;;;15.17;11.93;;;3.70;99.90;;;;;;6242742;22;20250;-86
2021/10/10 06:28:22;;;;;;;11.30;10.10;;;3.80;99.90;;;;;;6242600;22;20187;-86
2021/10/10 06:30:49;;;;;;;11.80;9.93;;;3.90;99.90;;;;;;6242498;22;20883;-86
2021/10/10 06:33:16;;;;;;;12.47;9.53;;;3.90;99.90;;;;;;6241112;22;20236;-86
2021/10/10 06:35:42;;;;;;;14.43;11.10;;;4.00;99.90;;;;;;6267908;22;20918;-86
2021/10/10 06:38:07;;;;;;;12.03;9.90;;;4.10;99.90;;;;;;6242381;22;20447;-86
2021/10/10 06:40:33;;;;;;;13.23;10.37;;;4.10;99.90;;;;;;6255133;22;20164;-86
2021/10/10 06:42:59;;;;;;;13.37;10.37;;;4.10;99.90;;;;;;6250895;22;20180;-86
2021/10/10 06:45:25;;;;;;;15.20;11.97;;;4.20;99.90;;;;;;6241686;22;20502;-86
2021/10/10 06:47:51;;;;;;;16.33;12.97;;;4.20;99.90;;;;;;6242812;22;20566;-86
2021/10/10 06:50:17;;;;;;;12.50;10.67;;;4.30;99.90;;;;;;6242221;22;20724;-86
2021/10/10 06:52:42;;;;;;;13.33;11.10;;;4.50;99.90;;;;;;6243185;22;20239;-86
2021/10/10 06:55:08;;;;;;;16.77;13.60;;;4.50;99.90;;;;;;6242423;22;20199;-86
2021/10/10 06:57:34;;;;;;;16.50;13.33;;;4.60;99.90;;;;;;6242655;22;20495;-86
2021/10/10 07:00:00;;;;;;;18.73;13.60;;;4.70;99.90;;;;;;6242320;22;20404;-86
2021/10/10 07:02:29;;;;;;;18.53;12.57;;;4.90;99.90;;;;;;6242891;22;20559;-86
2021/10/10 07:04:56;;;;;;;15.53;11.90;;;5.10;99.90;;;;;;6242564;22;20428;-86
2021/10/10 07:07:23;;;;;;;14.93;11.43;;;5.30;99.90;;;;;;6242516;22;20410;-86
2021/10/10 07:09:49;;;;;;;12.73;10.63;;;5.70;99.90;;;;;;6242155;22;20879;-86
2021/10/10 07:12:15;;;;;;;20.10;12.97;;;5.80;99.90;;;;;;6243071;22;20404;-86
2021/10/10 07:14:41;;;;;;;16.03;12.40;;;6.00;99.90;;;;;;6242346;22;20194;-86
2021/10/10 07:17:06;;;;;;;14.67;12.03;;;6.10;99.90;;;;;;6243082;22;20163;-86
2021/10/10 07:19:44;;;;;;;15.67;11.10;;;6.40;99.90;;;;;;6242646;22;20397;-86
2021/10/10 07:22:14;;;;;;;13.77;11.30;;;6.70;99.90;;;;;;6242087;22;20161;-86
2021/10/10 07:24:57;;;;;;;16.50;11.63;;;7.00;99.90;;;;;;6242537;22;20401;-86
2021/10/10 07:27:22;;;;;;;16.63;13.63;;;7.20;99.90;;;;;;6242531;22;20397;-86
2021/10/10 07:29:48;;;;;;;15.60;13.47;;;7.30;99.90;;;;;;6242497;22;20418;-86
2021/10/10 07:32:14;;;;;;;15.77;12.93;;;7.40;99.90;;;;;;6241778;22;20391;-86
2021/10/10 07:34:40;;;;;;;16.43;13.97;;;7.60;99.90;;;;;;6241665;22;20200;-86
2021/10/10 07:37:07;;;;;;;17.77;12.07;;;7.70;99.90;;;;;;6241789;22;20158;-85
2021/10/10 07:39:33;;;;;;;17.80;13.63;;;7.70;99.90;;;;;;6240834;22;20899;-86
2021/10/10 07:41:58;;;;;;;16.73;12.87;;;7.70;99.90;;;;;;6239542;22;20400;-87
2021/10/10 07:44:28;;;;;;;14.93;13.40;;;7.80;99.90;;;;;;6241092;22;20411;-86
2021/10/10 07:47:07;;;;;;;20.70;13.73;;;7.80;99.90;;;;;;6243939;22;20161;-85
2021/10/10 07:49:34;;;;;;;17.20;13.37;;;8.00;99.90;;;;;;6241762;22;20408;-86
2021/10/10 07:52:02;;;;;;;19.23;14.17;;;8.20;99.90;;;;;;6244156;22;20393;-86
2021/10/10 07:54:28;;;;;;;19.00;13.33;;;8.20;99.90;;;;;;6242733;22;20950;-87
2021/10/10 07:56:54;;;;;;;21.47;15.23;;;8.30;99.90;;;;;;6243087;22;20392;-86
2021/10/10 07:59:20;;;;;;;17.07;13.40;;;8.40;99.90;;;;;;6243445;22;20977;-86
2021/10/10 08:01:47;;;;;;;17.67;13.50;;;8.40;99.90;;;;;;6242342;22;20599;-86
2021/10/10 08:04:12;;;;;;;20.17;13.97;;;8.40;99.90;;;;;;6242354;22;20350;-86
2021/10/10 08:06:38;;;;;;;16.50;14.73;;;8.50;99.90;;;;;;6243004;22;20434;-86
2021/10/10 08:09:03;;;;;;;17.10;13.70;;;8.60;99.90;;;;;;6243383;22;20623;-86
2021/10/10 08:11:29;;;;;;;16.87;13.70;;;8.70;99.90;;;;;;6259556;22;20186;-87
2021/10/10 08:13:55;;;;;;;16.70;13.87;;;9.00;99.90;;;;;;6243229;22;20194;-86
2021/10/10 08:16:21;;;;;;;16.73;13.20;;;9.20;99.90;;;;;;6243582;22;20552;-86
2021/10/10 08:18:58;;;;;;;17.30;13.27;;;9.20;99.90;;;;;;6243566;22;20158;-85
2021/10/10 08:21:26;;;;;;;20.13;13.90;;;9.40;99.90;;;;;;6243547;22;20209;-85
2021/10/10 08:23:52;;;;;;;18.23;14.20;;;9.50;99.90;;;;;;6243487;22;20747;-85
2021/10/10 08:26:18;;;;;;;16.63;13.07;;;9.80;99.90;;;;;;6243540;22;20467;-86
2021/10/10 08:28:44;;;;;;;17.43;13.60;;;10.20;99.90;;;;;;6240844;22;20788;-85
2021/10/10 08:31:09;;;;;;;16.07;13.50;;;10.50;99.90;;;;;;6242803;22;20182;-86
2021/10/10 08:33:36;;;;;;;15.20;12.70;;;10.80;99.90;;;;;;6269518;22;20264;-86
2021/10/10 08:36:08;;;;;;;14.57;13.03;;;10.90;99.90;;;;;;6242704;22;20669;-87
2021/10/10 08:38:35;;;;;;;17.50;14.30;;;11.10;99.90;;;;;;6269960;22;20192;-84
2021/10/10 08:41:02;;;;;;;24.07;13.10;;;10.90;99.90;;;;;;6242661;22;20423;-85
2021/10/10 08:43:30;;;;;;;17.13;14.10;;;10.80;99.90;;;;;;6243396;22;20400;-85
2021/10/10 08:46:00;;;;;;;15.80;14.07;;;10.90;99.90;;;;;;6242798;22;20389;-86
2021/10/10 08:48:26;;;;;;;22.77;15.53;;;10.90;99.90;;;;;;6242607;22;20393;-86
2021/10/10 08:50:54;;;;;;;19.77;14.20;;;11.00;99.90;;;;;;6243615;22;20527;-87
2021/10/10 08:53:21;;;;;;;19.50;13.73;;;11.20;99.90;;;;;;6242505;22;20214;-87
2021/10/10 08:55:58;;;;;;;16.17;13.70;;;11.20;99.90;;;;;;6269038;22;20912;-87
2021/10/10 08:58:25;;;;;;;18.27;14.73;;;11.30;99.90;;;;;;6240271;22;20416;-87
2021/10/10 09:01:19;;;;;;;17.53;13.73;;;11.30;99.90;;;;;;6242947;22;20443;-86
2021/10/10 09:03:49;;;;;;;17.87;14.60;;;11.40;99.90;;;;;;6242267;22;20802;-87
2021/10/10 09:06:17;;;;;;;16.50;13.83;;;11.50;99.90;;;;;;6242856;22;20740;-87
2021/10/10 09:08:46;;;;;;;20.00;15.57;;;11.50;99.90;;;;;;6242875;22;20733;-88
2021/10/10 09:11:13;;;;;;;14.47;12.80;;;11.60;99.90;;;;;;6269254;22;20430;-87
2021/10/10 09:13:40;;;;;;;17.63;13.33;;;11.60;99.90;;;;;;6242972;22;20896;-87
2021/10/10 09:16:09;;;;;;;21.33;15.30;;;11.70;99.90;;;;;;6242340;22;20166;-87
2021/10/10 09:18:44;;;;;;;15.27;13.53;;;11.90;99.90;;;;;;6242680;22;20393;-88
2021/10/10 09:21:26;;;;;;;17.87;13.90;;;12.20;99.90;;;;;;6241005;22;20392;-87
2021/10/10 09:23:56;;;;;;;17.13;13.47;;;12.60;99.90;;;;;;6242346;22;20402;-88
2021/10/10 09:26:23;;;;;;;18.00;14.03;;;12.80;98.70;;;;;;6240120;22;20406;-88
2021/10/10 09:29:35;;;;;;;17.37;14.43;;;12.80;99.30;;;;;;6242965;22;20770;-87
2021/10/10 09:32:13;;;;;;;13.90;12.40;;;13.10;99.00;;;;;;6267210;22;20401;-88
2021/10/10 09:34:51;;;;;;;14.93;12.80;;;13.20;98.00;;;;;;6242523;22;20444;-90
2021/10/10 09:37:27;;;;;;;18.33;14.17;;;13.40;97.60;;;;;;6231297;22;20479;-87
2021/10/10 09:40:14;;;;;;;16.87;14.93;;;13.40;98.10;;;;;;6248080;22;20388;-87
2021/10/10 09:43:02;;;;;;;18.40;13.87;;;13.60;98.50;;;;;;6279962;22;20687;-88
2021/10/10 09:45:54;;;;;;;18.30;14.30;;;14.00;96.20;;;;;;6241574;22;20408;-88
2021/10/10 09:48:39;;;;;;;16.70;14.47;;;13.80;95.90;;;;;;6242427;22;20407;-88
2021/10/10 09:51:47;;;;;;;15.40;12.30;;;13.60;96.80;;;;;;6256891;22;20395;-87
2021/10/10 09:54:14;;;;;;;17.40;13.70;;;13.60;97.20;;;;;;6241889;22;20451;-88
2021/10/10 09:57:01;;;;;;;16.33;13.80;;;14.00;96.10;;;;;;6241465;22;20401;-88
2021/10/10 09:59:29;;;;;;;15.30;12.70;;;14.20;96.30;;;;;;6267583;22;20389;-88
2021/10/10 10:02:22;;;;;;;17.40;13.43;;;14.10;94.30;;;;;;6234674;22;20402;-88
2021/10/10 10:04:54;;;;;;;16.60;13.23;;;14.00;95.30;;;;;;6242232;22;20421;-86
2021/10/10 10:07:26;;;;;;;15.00;13.40;;;14.10;95.10;;;;;;6266693;22;20447;-89
2021/10/10 10:09:52;;;;;;;17.30;15.33;;;14.00;95.20;;;;;;6241084;22;20416;-88
2021/10/10 10:12:19;;;;;;;14.57;12.40;;;13.70;94.60;;;;;;6242901;22;20420;-86
2021/10/10 10:14:56;;;;;;;14.93;13.37;;;14.10;95.40;;;;;;6265153;22;20535;-86
2021/10/10 10:17:25;;;;;;;15.13;13.50;;;14.20;96.00;;;;;;6241864;22;20793;-87
2021/10/10 10:19:51;;;;;;;16.60;13.30;;;14.50;94.90;;;;;;6242250;22;20393;-86
2021/10/10 10:22:17;;;;;;;15.23;13.67;;;14.70;94.10;;;;;;6242774;22;20732;-87
2021/10/10 10:24:45;;;;;;;15.80;13.40;;;14.90;94.80;;;;;;6241252;22;20408;-87
2021/10/10 10:27:15;;;;;;;16.40;13.97;;;15.00;94.10;;;;;;6241679;22;20900;-87
2021/10/10 10:29:50;;;;;;;20.93;15.97;;;15.10;94.90;;;;;;6242475;22;20397;-87
2021/10/10 10:32:26;;;;;;;16.97;15.20;;;15.10;94.70;;;;;;6242998;22;20447;-87
2021/10/10 10:35:38;;;;;;;16.17;14.47;;;14.90;94.90;;;;;;6268729;22;20432;-87
2021/10/10 10:38:12;;;;;;;18.73;14.47;;;14.90;95.40;;;;;;6242375;22;20403;-87
2021/10/10 10:40:40;;;;;;;15.13;13.63;;;14.90;96.80;;;;;;6242117;22;20944;-87
2021/10/10 10:43:07;;;;;;;15.77;14.13;;;15.20;94.10;;;;;;6242070;22;20484;-87
2021/10/10 10:45:46;;;;;;;17.53;14.67;;;15.50;95.00;;;;;;6241693;22;20698;-87
2021/10/10 10:48:27;;;;;;;17.43;15.50;;;15.20;94.80;;;;;;6242858;22;20703;-87
2021/10/10 10:51:17;;;;;;;15.60;13.90;;;14.90;95.10;;;;;;6242080;22;20400;-87
2021/10/10 10:53:44;;;;;;;16.80;14.00;;;15.10;95.50;;;;;;6241913;22;20449;-86
2021/10/10 10:56:33;;;;;;;16.07;12.53;;;15.30;95.60;;;;;;6251947;22;20381;-88
2021/10/10 10:58:59;;;;;;;20.97;13.80;;;15.60;95.10;;;;;;6241711;22;20405;-90
2021/10/10 11:01:28;;;;;;;17.40;14.70;;;15.90;94.30;;;;;;6242672;22;20705;-89
2021/10/10 11:04:29;;;;;;;15.67;13.97;;;16.20;93.90;;;;;;6242227;22;20750;-88
2021/10/10 11:06:58;;;;;;;14.83;13.33;;;16.00;94.60;;;;;;6269207;22;20734;-89
2021/10/10 11:09:26;;;;;;;18.17;14.50;;;16.20;94.10;;;;;;6246927;22;20407;-87
2021/10/10 11:11:58;;;;;;;14.50;12.93;;;16.00;93.40;;;;;;6259829;22;20385;-88
2021/10/10 11:14:31;;;;;;;14.17;12.73;;;16.30;92.60;;;;;;6266423;22;20437;-87
2021/10/10 11:17:19;;;;;;;15.17;13.07;;;16.40;94.20;;;;;;6242536;22;20946;-89
2021/10/10 11:19:48;;;;;;;14.30;11.93;;;16.20;92.80;;;;;;6271964;22;20373;-90
2021/10/10 11:22:16;;;;;;;13.37;12.03;;;16.40;92.70;;;;;;6243709;22;20384;-88
2021/10/10 11:24:46;;;;;;;15.37;13.87;;;16.70;92.00;;;;;;6270223;22;20403;-89
2021/10/10 11:27:13;;;;;;;14.33;12.83;;;16.40;91.70;;;;;;6243707;22;20463;-87
2021/10/10 11:29:57;;;;;;;15.57;13.97;;;16.60;92.50;;;;;;6271060;22;20383;-86
2021/10/10 11:32:24;;;;;;;15.90;13.13;;;16.30;92.50;;;;;;6244454;22;20404;-93
2021/10/10 11:35:04;;;;;;;16.43;13.43;;;16.40;92.40;;;;;;6271854;22;20800;-90
2021/10/10 11:37:31;;;;;;;15.10;13.47;;;16.20;92.40;;;;;;6243441;22;20404;-89
2021/10/10 11:40:08;;;;;;;14.23;12.43;;;16.10;92.30;;;;;;6243633;22;20868;-90
2021/10/10 11:42:37;;;;;;;14.87;13.37;;;16.50;92.60;;;;;;6270434;22;20754;-90
2021/10/10 11:45:02;;;;;;;16.00;11.87;;;16.70;91.60;;;;;;6243941;22;20392;-88
2021/10/10 11:47:31;;;;;;;13.37;11.57;;;17.10;91.70;;;;;;6243828;22;20393;-87
2021/10/10 11:50:01;;;;;;;13.00;11.60;;;16.70;90.00;;;;;;6242675;22;20521;-85
2021/10/10 11:52:38;;;;;;;13.17;11.87;;;16.90;90.80;;;;;;6244100;22;20424;-88
2021/10/10 11:57:36;;;;;;;17.40;12.93;;;17.50;89.60;;;;;;6270993;22;20860;-89
2021/10/10 12:00:12;;;;;;;13.63;12.23;;;17.70;87.80;;;;;;6268719;22;20392;-89
2021/10/10 12:02:48;;;;;;;12.53;11.30;;;17.40;88.40;;;;;;6243410;22;20397;-87
2021/10/10 12:05:27;;;;;;;13.30;11.10;;;17.30;89.50;;;;;;6242696;22;20396;-89
2021/10/10 12:07:53;;;;;;;12.83;11.53;;;17.40;89.70;;;;;;6244077;22;20426;-89
2021/10/10 12:10:21;;;;;;;14.00;11.63;;;17.40;90.00;;;;;;6244110;22;20404;-88
2021/10/10 12:12:48;;;;;;;12.60;10.80;;;17.70;89.00;;;;;;6243368;22;20438;-88
2021/10/10 12:15:19;;;;;;;12.80;11.40;;;17.40;88.30;;;;;;6242922;22;21253;-88
2021/10/10 12:17:48;;;;;;;14.23;10.03;;;17.40;87.90;;;;;;6243236;22;20480;-88
2021/10/10 12:20:30;;;;;;;14.10;10.30;;;18.00;87.00;;;;;;6243825;22;20493;-90
2021/10/10 12:23:08;;;;;;;12.60;11.17;;;18.30;87.80;;;;;;6243564;22;20400;-88
2021/10/10 12:25:40;;;;;;;13.67;11.67;;;18.30;86.60;;;;;;6243159;22;20777;-88
2021/10/10 12:28:13;;;;;;;12.33;11.03;;;18.10;83.00;;;;;;6242979;22;20727;-88
2021/10/10 12:30:41;;;;;;;13.73;12.33;;;18.20;83.00;;;;;;6243447;22;20393;-89
2021/10/10 12:33:42;;;;;;;12.73;11.53;;;18.70;85.90;;;;;;6243474;22;20474;-87
2021/10/10 12:36:16;;;;;;;16.70;12.20;;;18.50;85.50;;;;;;6210674;22;20443;-88
2021/10/10 12:38:48;;;;;;;14.87;11.97;;;18.50;84.80;;;;;;6244227;22;20397;-88
2021/10/10 12:41:26;;;;;;;14.33;10.57;;;18.40;85.80;;;;;;6263035;22;20456;-88
2021/10/10 12:43:55;;;;;;;11.20;10.10;;;18.40;84.70;;;;;;6243518;22;20389;-88
2021/10/10 12:46:23;;;;;;;11.40;10.30;;;18.60;82.30;;;;;;6241565;22;20739;-89
2021/10/10 12:49:05;;;;;;;11.03;9.93;;;18.60;82.40;;;;;;6243076;22;20421;-89
2021/10/10 12:51:34;;;;;;;11.47;9.60;;;18.60;82.40;;;;;;6243645;22;20409;-88
2021/10/10 12:54:16;;;;;;;13.20;10.40;;;18.80;79.40;;;;;;6242067;22;20436;-88